sensor_id;sensor_type;location;lat;lon;timestamp;P1;P2;P0
73825;PMS5003;64145;55.060;73.168;2023-03-19T00:02:15;0.00;0.00;0.00
73825;PMS5003;64145;55.060;73.168;2023-03-19T00:04:51;0.00;0.00;0.00
73825;PMS5003;64145;55.060;73.168;2023-03-19T00:07:16;0.00;0.00;0.00
73825;PMS5003;64145;55.060;73.168;2023-03-19T00:09:42;0.00;0.00;0.00
73825;PMS5003;64145;55.060;73.168;2023-03-19T00:12:08;0.00;0.00;0.00
73825;PMS5003;64145;55.060;73.168;2023-03-19T00:14:34;0.00;0.00;0.00
73825;PMS5003;64145;55.060;73.168;2023-03-19T00:16:59;0.00;0.00;0.00
73825;PMS5003;64145;55.060;73.168;2023-03-19T00:19:25;0.00;0.00;0.00
73825;PMS5003;64145;55.060;73.168;2023-03-19T00:21:50;0.00;0.00;0.00
73825;PMS5003;64145;55.060;73.168;2023-03-19T00:24:16;0.00;0.00;0.00
73825;PMS5003;64145;55.060;73.168;2023-03-19T00:26:42;0.00;0.00;0.00
73825;PMS5003;64145;55.060;73.168;2023-03-19T00:29:07;0.00;0.00;0.00
73825;PMS5003;64145;55.060;73.168;2023-03-19T00:31:33;0.00;0.00;0.00
73825;PMS5003;64145;55.060;73.168;2023-03-19T00:34:04;0.00;0.00;0.00
73825;PMS5003;64145;55.060;73.168;2023-03-19T00:36:29;0.00;0.00;0.00
73825;PMS5003;64145;55.060;73.168;2023-03-19T00:38:55;0.00;0.00;0.00
73825;PMS5003;64145;55.060;73.168;2023-03-19T00:41:21;0.00;0.00;0.00
73825;PMS5003;64145;55.060;73.168;2023-03-19T00:43:57;0.00;0.00;0.00
73825;PMS5003;64145;55.060;73.168;2023-03-19T00:46:23;0.00;0.00;0.00
73825;PMS5003;64145;55.060;73.168;2023-03-19T00:48:54;0.00;0.00;0.00
73825;PMS5003;64145;55.060;73.168;2023-03-19T00:51:20;0.00;0.00;0.00
73825;PMS5003;64145;55.060;73.168;2023-03-19T00:53:46;0.00;0.00;0.00
73825;PMS5003;64145;55.060;73.168;2023-03-19T00:56:12;0.00;0.00;0.00
73825;PMS5003;64145;55.060;73.168;2023-03-19T00:58:43;0.00;0.00;0.00
73825;PMS5003;64145;55.060;73.168;2023-03-19T01:01:09;0.00;0.00;0.00
73825;PMS5003;64145;55.060;73.168;2023-03-19T01:03:35;1.00;0.00;0.00
73825;PMS5003;64145;55.060;73.168;2023-03-19T01:06:01;0.00;0.00;0.00
73825;PMS5003;64145;55.060;73.168;2023-03-19T01:08:27;0.00;0.00;0.00
73825;PMS5003;64145;55.060;73.168;2023-03-19T01:10:53;0.00;0.00;0.00
73825;PMS5003;64145;55.060;73.168;2023-03-19T01:13:18;0.00;0.00;0.00
73825;PMS5003;64145;55.060;73.168;2023-03-19T01:15:44;0.00;0.00;0.00
73825;PMS5003;64145;55.060;73.168;2023-03-19T01:18:20;0.00;0.00;0.00
73825;PMS5003;64145;55.060;73.168;2023-03-19T01:20:56;0.00;0.00;0.00
73825;PMS5003;64145;55.060;73.168;2023-03-19T01:23:27;0.00;0.00;0.00
73825;PMS5003;64145;55.060;73.168;2023-03-19T01:25:52;0.00;0.00;0.00
73825;PMS5003;64145;55.060;73.168;2023-03-19T01:28:18;0.00;0.00;0.00
73825;PMS5003;64145;55.060;73.168;2023-03-19T01:30:44;0.00;0.00;0.00
73825;PMS5003;64145;55.060;73.168;2023-03-19T01:33:09;0.00;0.00;0.00
73825;PMS5003;64145;55.060;73.168;2023-03-19T01:35:35;0.00;0.00;0.00
73825;PMS5003;64145;55.060;73.168;2023-03-19T01:38:01;0.00;0.00;0.00
73825;PMS5003;64145;55.060;73.168;2023-03-19T01:40:42;0.00;0.00;0.00
73825;PMS5003;64145;55.060;73.168;2023-03-19T01:43:15;0.00;0.00;0.00
73825;PMS5003;64145;55.060;73.168;2023-03-19T01:45:47;0.75;0.00;0.00
73825;PMS5003;64145;55.060;73.168;2023-03-19T01:50:49;0.00;0.00;0.00
73825;PMS5003;64145;55.060;73.168;2023-03-19T01:53:18;0.00;0.00;0.00
73825;PMS5003;64145;55.060;73.168;2023-03-19T01:55:45;0.00;0.00;0.00
73825;PMS5003;64145;55.060;73.168;2023-03-19T01:58:21;0.00;0.00;0.00
73825;PMS5003;64145;55.060;73.168;2023-03-19T02:00:47;2.00;1.00;0.00
73825;PMS5003;64145;55.060;73.168;2023-03-19T02:03:13;0.00;0.00;0.00
73825;PMS5003;64145;55.060;73.168;2023-03-19T02:05:48;0.00;0.00;0.00
73825;PMS5003;64145;55.060;73.168;2023-03-19T02:08:16;0.00;0.00;0.00
73825;PMS5003;64145;55.060;73.168;2023-03-19T02:10:43;0.00;0.00;0.00
73825;PMS5003;64145;55.060;73.168;2023-03-19T02:13:10;0.00;0.00;0.00
73825;PMS5003;64145;55.060;73.168;2023-03-19T02:15:36;0.00;0.00;0.00
73825;PMS5003;64145;55.060;73.168;2023-03-19T02:18:07;0.00;0.00;0.00
73825;PMS5003;64145;55.060;73.168;2023-03-19T02:28:29;0.00;0.00;0.00
73825;PMS5003;64145;55.060;73.168;2023-03-19T02:31:06;0.00;0.00;0.00
73825;PMS5003;64145;55.060;73.168;2023-03-19T02:33:31;0.00;0.00;0.00
73825;PMS5003;64145;55.060;73.168;2023-03-19T02:35:57;0.00;0.00;0.00
73825;PMS5003;64145;55.060;73.168;2023-03-19T02:38:23;0.00;0.00;0.00
73825;PMS5003;64145;55.060;73.168;2023-03-19T02:41:00;0.00;0.00;0.00
73825;PMS5003;64145;55.060;73.168;2023-03-19T02:43:26;0.00;0.00;0.00
73825;PMS5003;64145;55.060;73.168;2023-03-19T02:45:52;0.00;0.00;0.00
73825;PMS5003;64145;55.060;73.168;2023-03-19T02:48:18;0.00;0.00;0.00
73825;PMS5003;64145;55.060;73.168;2023-03-19T02:50:44;0.00;0.00;0.00
73825;PMS5003;64145;55.060;73.168;2023-03-19T02:53:10;0.00;0.00;0.00
73825;PMS5003;64145;55.060;73.168;2023-03-19T02:55:35;0.00;0.00;0.00
73825;PMS5003;64145;55.060;73.168;2023-03-19T02:58:06;0.00;0.00;0.00
73825;PMS5003;64145;55.060;73.168;2023-03-19T03:00:36;1.00;0.00;0.00
73825;PMS5003;64145;55.060;73.168;2023-03-19T03:03:13;5.00;4.25;1.00
73825;PMS5003;64145;55.060;73.168;2023-03-19T03:05:38;1.00;1.00;0.00
73825;PMS5003;64145;55.060;73.168;2023-03-19T03:08:04;0.00;0.00;0.00
73825;PMS5003;64145;55.060;73.168;2023-03-19T03:10:36;1.25;1.00;0.00
73825;PMS5003;64145;55.060;73.168;2023-03-19T03:13:11;1.00;1.00;0.00
73825;PMS5003;64145;55.060;73.168;2023-03-19T03:15:37;1.00;1.00;0.00
73825;PMS5003;64145;55.060;73.168;2023-03-19T03:18:13;1.00;1.00;0.00
73825;PMS5003;64145;55.060;73.168;2023-03-19T03:20:39;0.00;0.00;0.00
73825;PMS5003;64145;55.060;73.168;2023-03-19T03:23:05;0.00;0.00;0.00
73825;PMS5003;64145;55.060;73.168;2023-03-19T03:25:31;0.00;0.00;0.00
73825;PMS5003;64145;55.060;73.168;2023-03-19T03:27:56;0.00;0.00;0.00
73825;PMS5003;64145;55.060;73.168;2023-03-19T03:30:32;0.00;0.00;0.00
73825;PMS5003;64145;55.060;73.168;2023-03-19T03:32:57;0.33;0.00;0.00
73825;PMS5003;64145;55.060;73.168;2023-03-19T03:35:23;0.00;0.00;0.00
73825;PMS5003;64145;55.060;73.168;2023-03-19T03:37:49;0.00;0.00;0.00
73825;PMS5003;64145;55.060;73.168;2023-03-19T03:40:14;0.00;0.00;0.00
73825;PMS5003;64145;55.060;73.168;2023-03-19T03:42:47;0.00;0.00;0.00
73825;PMS5003;64145;55.060;73.168;2023-03-19T03:45:12;1.00;0.00;0.00
73825;PMS5003;64145;55.060;73.168;2023-03-19T03:47:38;0.00;0.00;0.00
73825;PMS5003;64145;55.060;73.168;2023-03-19T03:50:04;0.00;0.00;0.00
73825;PMS5003;64145;55.060;73.168;2023-03-19T03:52:30;0.00;0.00;0.00
73825;PMS5003;64145;55.060;73.168;2023-03-19T03:55:03;0.00;0.00;0.00
73825;PMS5003;64145;55.060;73.168;2023-03-19T03:57:29;2.00;1.50;0.00
73825;PMS5003;64145;55.060;73.168;2023-03-19T03:59:59;0.00;0.00;0.00
73825;PMS5003;64145;55.060;73.168;2023-03-19T04:02:25;0.00;0.00;0.00
73825;PMS5003;64145;55.060;73.168;2023-03-19T04:05:02;0.00;0.00;0.00
73825;PMS5003;64145;55.060;73.168;2023-03-19T04:07:27;2.00;2.00;0.00
73825;PMS5003;64145;55.060;73.168;2023-03-19T04:09:53;0.67;0.00;0.00
73825;PMS5003;64145;55.060;73.168;2023-03-19T04:12:28;0.00;0.00;0.00
73825;PMS5003;64145;55.060;73.168;2023-03-19T04:14:54;1.67;1.67;0.00
73825;PMS5003;64145;55.060;73.168;2023-03-19T04:17:29;0.25;0.00;0.00
73825;PMS5003;64145;55.060;73.168;2023-03-19T04:19:55;2.00;1.00;0.00
73825;PMS5003;64145;55.060;73.168;2023-03-19T04:22:20;1.00;0.00;0.00
73825;PMS5003;64145;55.060;73.168;2023-03-19T04:24:46;1.00;0.00;0.00
73825;PMS5003;64145;55.060;73.168;2023-03-19T04:27:16;1.00;0.00;0.00
73825;PMS5003;64145;55.060;73.168;2023-03-19T04:29:42;0.00;0.00;0.00
73825;PMS5003;64145;55.060;73.168;2023-03-19T04:32:17;0.00;0.00;0.00
73825;PMS5003;64145;55.060;73.168;2023-03-19T04:34:43;0.00;0.00;0.00
73825;PMS5003;64145;55.060;73.168;2023-03-19T04:37:08;0.00;0.00;0.00
73825;PMS5003;64145;55.060;73.168;2023-03-19T04:39:37;0.00;0.00;0.00
73825;PMS5003;64145;55.060;73.168;2023-03-19T04:42:03;0.00;0.00;0.00
73825;PMS5003;64145;55.060;73.168;2023-03-19T04:44:28;0.00;0.00;0.00
73825;PMS5003;64145;55.060;73.168;2023-03-19T04:46:55;0.00;0.00;0.00
73825;PMS5003;64145;55.060;73.168;2023-03-19T04:49:20;0.00;0.00;0.00
73825;PMS5003;64145;55.060;73.168;2023-03-19T04:51:46;0.00;0.00;0.00
73825;PMS5003;64145;55.060;73.168;2023-03-19T04:54:12;0.00;0.00;0.00
73825;PMS5003;64145;55.060;73.168;2023-03-19T04:56:42;1.00;0.00;0.00
73825;PMS5003;64145;55.060;73.168;2023-03-19T04:59:17;1.00;0.00;0.00
73825;PMS5003;64145;55.060;73.168;2023-03-19T05:01:43;0.00;0.00;0.00
73825;PMS5003;64145;55.060;73.168;2023-03-19T05:04:09;0.00;0.00;0.00
73825;PMS5003;64145;55.060;73.168;2023-03-19T05:06:44;0.00;0.00;0.00
73825;PMS5003;64145;55.060;73.168;2023-03-19T05:09:10;0.00;0.00;0.00
73825;PMS5003;64145;55.060;73.168;2023-03-19T05:11:36;0.00;0.00;0.00
73825;PMS5003;64145;55.060;73.168;2023-03-19T05:14:01;0.00;0.00;0.00
73825;PMS5003;64145;55.060;73.168;2023-03-19T05:16:27;0.00;0.00;0.00
73825;PMS5003;64145;55.060;73.168;2023-03-19T05:18:52;0.00;0.00;0.00
73825;PMS5003;64145;55.060;73.168;2023-03-19T05:21:18;0.00;0.00;0.00
73825;PMS5003;64145;55.060;73.168;2023-03-19T05:23:44;0.00;0.00;0.00
73825;PMS5003;64145;55.060;73.168;2023-03-19T05:26:09;0.00;0.00;0.00
73825;PMS5003;64145;55.060;73.168;2023-03-19T05:28:35;0.00;0.00;0.00
73825;PMS5003;64145;55.060;73.168;2023-03-19T05:31:02;0.00;0.00;0.00
73825;PMS5003;64145;55.060;73.168;2023-03-19T05:33:28;0.00;0.00;0.00
73825;PMS5003;64145;55.060;73.168;2023-03-19T05:35:54;0.00;0.00;0.00
73825;PMS5003;64145;55.060;73.168;2023-03-19T05:38:25;0.00;0.00;0.00
73825;PMS5003;64145;55.060;73.168;2023-03-19T05:40:50;0.00;0.00;0.00
73825;PMS5003;64145;55.060;73.168;2023-03-19T05:43:16;1.75;1.00;0.00
73825;PMS5003;64145;55.060;73.168;2023-03-19T05:45:42;0.00;0.00;0.00
73825;PMS5003;64145;55.060;73.168;2023-03-19T05:48:07;0.00;0.00;0.00
73825;PMS5003;64145;55.060;73.168;2023-03-19T05:50:33;0.00;0.00;0.00
73825;PMS5003;64145;55.060;73.168;2023-03-19T05:52:59;0.00;0.00;0.00
73825;PMS5003;64145;55.060;73.168;2023-03-19T05:55:25;0.00;0.00;0.00
73825;PMS5003;64145;55.060;73.168;2023-03-19T05:57:50;0.00;0.00;0.00
73825;PMS5003;64145;55.060;73.168;2023-03-19T06:00:21;0.00;0.00;0.00
73825;PMS5003;64145;55.060;73.168;2023-03-19T06:02:57;0.00;0.00;0.00
73825;PMS5003;64145;55.060;73.168;2023-03-19T06:05:33;0.00;0.00;0.00
73825;PMS5003;64145;55.060;73.168;2023-03-19T06:07:58;0.00;0.00;0.00
73825;PMS5003;64145;55.060;73.168;2023-03-19T06:10:24;0.00;0.00;0.00
73825;PMS5003;64145;55.060;73.168;2023-03-19T06:12:51;0.00;0.00;0.00
73825;PMS5003;64145;55.060;73.168;2023-03-19T06:15:16;0.00;0.00;0.00
73825;PMS5003;64145;55.060;73.168;2023-03-19T06:17:48;0.00;0.00;0.00
73825;PMS5003;64145;55.060;73.168;2023-03-19T06:20:19;0.00;0.00;0.00
73825;PMS5003;64145;55.060;73.168;2023-03-19T06:22:44;0.00;0.00;0.00
73825;PMS5003;64145;55.060;73.168;2023-03-19T06:25:10;0.00;0.00;0.00
73825;PMS5003;64145;55.060;73.168;2023-03-19T06:27:36;0.00;0.00;0.00
73825;PMS5003;64145;55.060;73.168;2023-03-19T06:30:06;0.00;0.00;0.00
73825;PMS5003;64145;55.060;73.168;2023-03-19T06:32:33;0.00;0.00;0.00
73825;PMS5003;64145;55.060;73.168;2023-03-19T06:34:59;0.00;0.00;0.00
73825;PMS5003;64145;55.060;73.168;2023-03-19T06:37:26;0.00;0.00;0.00
73825;PMS5003;64145;55.060;73.168;2023-03-19T06:40:01;0.00;0.00;0.00
73825;PMS5003;64145;55.060;73.168;2023-03-19T06:42:29;0.00;0.00;0.00
73825;PMS5003;64145;55.060;73.168;2023-03-19T06:44:55;1.00;0.00;0.00
73825;PMS5003;64145;55.060;73.168;2023-03-19T06:47:20;0.00;0.00;0.00
73825;PMS5003;64145;55.060;73.168;2023-03-19T06:49:46;0.00;0.00;0.00
73825;PMS5003;64145;55.060;73.168;2023-03-19T06:52:12;0.00;0.00;0.00
73825;PMS5003;64145;55.060;73.168;2023-03-19T06:54:37;0.67;0.00;0.00
73825;PMS5003;64145;55.060;73.168;2023-03-19T06:57:13;0.00;0.00;0.00
73825;PMS5003;64145;55.060;73.168;2023-03-19T06:59:38;1.00;0.00;0.00
73825;PMS5003;64145;55.060;73.168;2023-03-19T07:02:04;0.00;0.00;0.00
73825;PMS5003;64145;55.060;73.168;2023-03-19T07:04:29;0.00;0.00;0.00
73825;PMS5003;64145;55.060;73.168;2023-03-19T07:06:55;0.00;0.00;0.00
73825;PMS5003;64145;55.060;73.168;2023-03-19T07:09:20;0.00;0.00;0.00
73825;PMS5003;64145;55.060;73.168;2023-03-19T07:11:46;0.00;0.00;0.00
73825;PMS5003;64145;55.060;73.168;2023-03-19T07:14:12;0.00;0.00;0.00
73825;PMS5003;64145;55.060;73.168;2023-03-19T07:16:37;0.00;0.00;0.00
73825;PMS5003;64145;55.060;73.168;2023-03-19T07:19:03;0.00;0.00;0.00
73825;PMS5003;64145;55.060;73.168;2023-03-19T07:21:28;0.00;0.00;0.00
73825;PMS5003;64145;55.060;73.168;2023-03-19T07:23:59;0.00;0.00;0.00
73825;PMS5003;64145;55.060;73.168;2023-03-19T07:26:25;1.00;1.00;0.00
73825;PMS5003;64145;55.060;73.168;2023-03-19T07:28:50;0.00;0.00;0.00
73825;PMS5003;64145;55.060;73.168;2023-03-19T07:31:27;0.00;0.00;0.00
73825;PMS5003;64145;55.060;73.168;2023-03-19T07:33:52;0.00;0.00;0.00
73825;PMS5003;64145;55.060;73.168;2023-03-19T07:36:18;0.00;0.00;0.00
73825;PMS5003;64145;55.060;73.168;2023-03-19T07:38:43;0.00;0.00;0.00
73825;PMS5003;64145;55.060;73.168;2023-03-19T07:41:09;0.00;0.00;0.00
73825;PMS5003;64145;55.060;73.168;2023-03-19T07:43:35;0.00;0.00;0.00
73825;PMS5003;64145;55.060;73.168;2023-03-19T07:46:00;0.00;0.00;0.00
73825;PMS5003;64145;55.060;73.168;2023-03-19T07:48:27;0.00;0.00;0.00
73825;PMS5003;64145;55.060;73.168;2023-03-19T07:50:52;0.00;0.00;0.00
73825;PMS5003;64145;55.060;73.168;2023-03-19T07:53:28;0.00;0.00;0.00
73825;PMS5003;64145;55.060;73.168;2023-03-19T07:55:54;0.00;0.00;0.00
73825;PMS5003;64145;55.060;73.168;2023-03-19T07:58:24;0.00;0.00;0.00
73825;PMS5003;64145;55.060;73.168;2023-03-19T08:00:51;0.00;0.00;0.00
73825;PMS5003;64145;55.060;73.168;2023-03-19T08:03:17;0.00;0.00;0.00
73825;PMS5003;64145;55.060;73.168;2023-03-19T08:05:48;0.00;0.00;0.00
73825;PMS5003;64145;55.060;73.168;2023-03-19T08:08:14;0.25;0.00;0.00
73825;PMS5003;64145;55.060;73.168;2023-03-19T08:10:51;0.00;0.00;0.00
73825;PMS5003;64145;55.060;73.168;2023-03-19T08:13:17;0.00;0.00;0.00
73825;PMS5003;64145;55.060;73.168;2023-03-19T08:15:43;0.00;0.00;0.00
73825;PMS5003;64145;55.060;73.168;2023-03-19T08:18:08;0.00;0.00;0.00
73825;PMS5003;64145;55.060;73.168;2023-03-19T08:20:34;0.00;0.00;0.00
73825;PMS5003;64145;55.060;73.168;2023-03-19T08:22:59;0.00;0.00;0.00
73825;PMS5003;64145;55.060;73.168;2023-03-19T08:25:35;0.00;0.00;0.00
73825;PMS5003;64145;55.060;73.168;2023-03-19T08:28:01;0.00;0.00;0.00
73825;PMS5003;64145;55.060;73.168;2023-03-19T08:30:26;0.00;0.00;0.00
73825;PMS5003;64145;55.060;73.168;2023-03-19T08:32:52;0.00;0.00;0.00
73825;PMS5003;64145;55.060;73.168;2023-03-19T08:35:18;0.00;0.00;0.00
73825;PMS5003;64145;55.060;73.168;2023-03-19T08:37:44;0.00;0.00;0.00
73825;PMS5003;64145;55.060;73.168;2023-03-19T08:40:09;0.00;0.00;0.00
73825;PMS5003;64145;55.060;73.168;2023-03-19T08:42:35;0.00;0.00;0.00
73825;PMS5003;64145;55.060;73.168;2023-03-19T08:45:06;0.00;0.00;0.00
73825;PMS5003;64145;55.060;73.168;2023-03-19T08:47:32;0.75;0.25;0.00
73825;PMS5003;64145;55.060;73.168;2023-03-19T08:49:57;0.67;0.67;0.00
73825;PMS5003;64145;55.060;73.168;2023-03-19T08:52:33;1.50;0.00;0.00
73825;PMS5003;64145;55.060;73.168;2023-03-19T08:54:59;1.00;0.00;0.00
73825;PMS5003;64145;55.060;73.168;2023-03-19T08:57:35;0.00;0.00;0.00
73825;PMS5003;64145;55.060;73.168;2023-03-19T09:00:01;0.00;0.00;0.00
73825;PMS5003;64145;55.060;73.168;2023-03-19T09:02:26;2.00;2.00;0.00
73825;PMS5003;64145;55.060;73.168;2023-03-19T09:04:52;2.00;2.00;0.00
73825;PMS5003;64145;55.060;73.168;2023-03-19T09:07:18;0.33;0.00;0.00
73825;PMS5003;64145;55.060;73.168;2023-03-19T09:09:43;0.00;0.00;0.00
73825;PMS5003;64145;55.060;73.168;2023-03-19T09:12:10;0.00;0.00;0.00
73825;PMS5003;64145;55.060;73.168;2023-03-19T09:14:36;0.00;0.00;0.00
73825;PMS5003;64145;55.060;73.168;2023-03-19T09:17:02;2.00;2.00;0.00
73825;PMS5003;64145;55.060;73.168;2023-03-19T09:19:28;1.00;1.00;0.00
73825;PMS5003;64145;55.060;73.168;2023-03-19T09:21:58;2.00;2.00;0.00
73825;PMS5003;64145;55.060;73.168;2023-03-19T09:24:30;0.00;0.00;0.00
73825;PMS5003;64145;55.060;73.168;2023-03-19T09:27:06;1.00;0.00;0.00
73825;PMS5003;64145;55.060;73.168;2023-03-19T09:29:31;0.00;0.00;0.00
73825;PMS5003;64145;55.060;73.168;2023-03-19T09:32:07;0.00;0.00;0.00
73825;PMS5003;64145;55.060;73.168;2023-03-19T09:34:32;0.00;0.00;0.00
73825;PMS5003;64145;55.060;73.168;2023-03-19T09:36:58;1.67;1.00;0.00
73825;PMS5003;64145;55.060;73.168;2023-03-19T09:39:23;1.00;1.00;0.00
73825;PMS5003;64145;55.060;73.168;2023-03-19T09:42:05;2.00;2.00;0.00
73825;PMS5003;64145;55.060;73.168;2023-03-19T09:44:43;3.00;3.00;1.00
73825;PMS5003;64145;55.060;73.168;2023-03-19T09:47:15;2.00;2.00;1.00
73825;PMS5003;64145;55.060;73.168;2023-03-19T09:49:46;2.00;2.00;0.00
73825;PMS5003;64145;55.060;73.168;2023-03-19T09:54:47;0.67;0.67;0.00
73825;PMS5003;64145;55.060;73.168;2023-03-19T09:57:22;8.75;8.75;3.50
73825;PMS5003;64145;55.060;73.168;2023-03-19T09:59:47;5.00;5.00;1.00
73825;PMS5003;64145;55.060;73.168;2023-03-19T10:07:46;2.00;2.00;0.00
73825;PMS5003;64145;55.060;73.168;2023-03-19T10:10:20;0.00;0.00;0.00
73825;PMS5003;64145;55.060;73.168;2023-03-19T10:13:08;0.00;0.00;0.00
73825;PMS5003;64145;55.060;73.168;2023-03-19T10:15:36;0.00;0.00;0.00
73825;PMS5003;64145;55.060;73.168;2023-03-19T10:25:47;0.00;0.00;0.00
73825;PMS5003;64145;55.060;73.168;2023-03-19T10:28:16;0.00;0.00;0.00
73825;PMS5003;64145;55.060;73.168;2023-03-19T10:30:49;0.00;0.00;0.00
73825;PMS5003;64145;55.060;73.168;2023-03-19T10:33:24;1.50;1.50;0.00
73825;PMS5003;64145;55.060;73.168;2023-03-19T10:35:57;0.00;0.00;0.00
73825;PMS5003;64145;55.060;73.168;2023-03-19T10:38:25;0.00;0.00;0.00
73825;PMS5003;64145;55.060;73.168;2023-03-19T10:43:50;0.00;0.00;0.00
73825;PMS5003;64145;55.060;73.168;2023-03-19T10:46:16;0.00;0.00;0.00
73825;PMS5003;64145;55.060;73.168;2023-03-19T10:48:43;0.00;0.00;0.00
73825;PMS5003;64145;55.060;73.168;2023-03-19T10:51:10;9.25;6.50;2.00
73825;PMS5003;64145;55.060;73.168;2023-03-19T10:53:38;1.75;0.75;0.00
73825;PMS5003;64145;55.060;73.168;2023-03-19T10:56:05;0.00;0.00;0.00
73825;PMS5003;64145;55.060;73.168;2023-03-19T10:58:32;0.00;0.00;0.00
73825;PMS5003;64145;55.060;73.168;2023-03-19T11:01:08;5.50;4.50;0.75
73825;PMS5003;64145;55.060;73.168;2023-03-19T11:03:36;1.75;1.75;0.00
73825;PMS5003;64145;55.060;73.168;2023-03-19T11:06:03;0.00;0.00;0.00
73825;PMS5003;64145;55.060;73.168;2023-03-19T11:08:35;7.00;5.00;3.00
73825;PMS5003;64145;55.060;73.168;2023-03-19T11:11:01;5.75;5.00;2.00
73825;PMS5003;64145;55.060;73.168;2023-03-19T11:13:36;0.75;0.00;0.00
73825;PMS5003;64145;55.060;73.168;2023-03-19T11:16:02;0.00;0.00;0.00
73825;PMS5003;64145;55.060;73.168;2023-03-19T11:18:35;0.00;0.00;0.00
73825;PMS5003;64145;55.060;73.168;2023-03-19T11:21:21;0.00;0.00;0.00
73825;PMS5003;64145;55.060;73.168;2023-03-19T11:23:50;0.00;0.00;0.00
73825;PMS5003;64145;55.060;73.168;2023-03-19T11:26:19;16.50;12.50;5.50
73825;PMS5003;64145;55.060;73.168;2023-03-19T11:28:49;15.75;14.00;5.00
73825;PMS5003;64145;55.060;73.168;2023-03-19T11:31:18;13.00;12.00;5.00
73825;PMS5003;64145;55.060;73.168;2023-03-19T11:36:24;2.00;2.00;0.00
73825;PMS5003;64145;55.060;73.168;2023-03-19T11:44:00;0.00;0.00;0.00
73825;PMS5003;64145;55.060;73.168;2023-03-19T11:49:40;0.00;0.00;0.00
73825;PMS5003;64145;55.060;73.168;2023-03-19T11:52:22;0.00;0.00;0.00
73825;PMS5003;64145;55.060;73.168;2023-03-19T12:02:37;0.00;0.00;0.00
73825;PMS5003;64145;55.060;73.168;2023-03-19T12:07:48;0.00;0.00;0.00
73825;PMS5003;64145;55.060;73.168;2023-03-19T12:12:58;0.00;0.00;0.00
73825;PMS5003;64145;55.060;73.168;2023-03-19T12:15:36;0.00;0.00;0.00
73825;PMS5003;64145;55.060;73.168;2023-03-19T12:28:35;39.50;31.00;17.00
73825;PMS5003;64145;55.060;73.168;2023-03-19T12:36:01;25.00;20.67;13.00
73825;PMS5003;64145;55.060;73.168;2023-03-19T12:41:01;0.00;0.00;0.00
73825;PMS5003;64145;55.060;73.168;2023-03-19T12:43:34;0.00;0.00;0.00
73825;PMS5003;64145;55.060;73.168;2023-03-19T12:46:11;2.00;2.00;0.00
73825;PMS5003;64145;55.060;73.168;2023-03-19T12:51:26;0.00;0.00;0.00
73825;PMS5003;64145;55.060;73.168;2023-03-19T12:53:54;3.75;1.75;0.00
73825;PMS5003;64145;55.060;73.168;2023-03-19T13:01:26;0.00;0.00;0.00
73825;PMS5003;64145;55.060;73.168;2023-03-19T13:04:06;0.00;0.00;0.00
73825;PMS5003;64145;55.060;73.168;2023-03-19T13:06:38;0.00;0.00;0.00
73825;PMS5003;64145;55.060;73.168;2023-03-19T13:14:41;0.00;0.00;0.00
73825;PMS5003;64145;55.060;73.168;2023-03-19T13:19:51;0.00;0.00;0.00
73825;PMS5003;64145;55.060;73.168;2023-03-19T13:22:30;0.00;0.00;0.00
73825;PMS5003;64145;55.060;73.168;2023-03-19T13:25:02;0.00;0.00;0.00
73825;PMS5003;64145;55.060;73.168;2023-03-19T13:27:30;0.00;0.00;0.00
73825;PMS5003;64145;55.060;73.168;2023-03-19T13:32:45;1.00;0.00;0.00
73825;PMS5003;64145;55.060;73.168;2023-03-19T13:35:26;0.00;0.00;0.00
73825;PMS5003;64145;55.060;73.168;2023-03-19T13:38:05;0.00;0.00;0.00
73825;PMS5003;64145;55.060;73.168;2023-03-19T13:48:36;0.00;0.00;0.00
73825;PMS5003;64145;55.060;73.168;2023-03-19T13:56:54;6.25;5.50;3.50
73825;PMS5003;64145;55.060;73.168;2023-03-19T13:59:21;4.00;4.00;2.00
73825;PMS5003;64145;55.060;73.168;2023-03-19T14:01:48;4.00;4.00;1.00
73825;PMS5003;64145;55.060;73.168;2023-03-19T14:06:46;15.25;14.25;8.50
73825;PMS5003;64145;55.060;73.168;2023-03-19T14:11:53;29.00;24.00;14.00
73825;PMS5003;64145;55.060;73.168;2023-03-19T14:14:19;34.67;27.33;16.00
73825;PMS5003;64145;55.060;73.168;2023-03-19T14:16:47;40.50;32.00;18.75
73825;PMS5003;64145;55.060;73.168;2023-03-19T14:19:16;40.00;30.50;19.00
73825;PMS5003;64145;55.060;73.168;2023-03-19T14:21:44;36.75;30.00;18.00
73825;PMS5003;64145;55.060;73.168;2023-03-19T14:26:56;18.75;18.00;8.75
73825;PMS5003;64145;55.060;73.168;2023-03-19T14:29:34;14.00;14.00;4.00
73825;PMS5003;64145;55.060;73.168;2023-03-19T14:32:00;12.00;10.67;4.00
73825;PMS5003;64145;55.060;73.168;2023-03-19T14:34:31;12.00;10.00;4.00
73825;PMS5003;64145;55.060;73.168;2023-03-19T14:39:43;6.00;4.50;0.00
73825;PMS5003;64145;55.060;73.168;2023-03-19T14:42:16;4.00;3.25;2.00
73825;PMS5003;64145;55.060;73.168;2023-03-19T14:50:03;3.25;2.00;1.00
73825;PMS5003;64145;55.060;73.168;2023-03-19T14:52:43;2.00;2.00;0.00
73825;PMS5003;64145;55.060;73.168;2023-03-19T14:55:14;2.00;2.00;0.00
73825;PMS5003;64145;55.060;73.168;2023-03-19T14:57:41;2.00;2.00;0.00
73825;PMS5003;64145;55.060;73.168;2023-03-19T15:00:17;6.75;6.50;3.00
73825;PMS5003;64145;55.060;73.168;2023-03-19T15:02:47;6.00;5.50;3.00
73825;PMS5003;64145;55.060;73.168;2023-03-19T15:05:15;4.00;4.00;2.00
73825;PMS5003;64145;55.060;73.168;2023-03-19T15:07:43;4.50;3.00;2.00
73825;PMS5003;64145;55.060;73.168;2023-03-19T15:10:22;4.00;3.00;2.00
73825;PMS5003;64145;55.060;73.168;2023-03-19T15:12:52;2.75;2.00;1.00
73825;PMS5003;64145;55.060;73.168;2023-03-19T15:18:08;4.00;4.00;0.00
73825;PMS5003;64145;55.060;73.168;2023-03-19T15:20:36;6.00;5.50;2.00
73825;PMS5003;64145;55.060;73.168;2023-03-19T15:23:02;5.00;5.00;3.00
73825;PMS5003;64145;55.060;73.168;2023-03-19T15:25:46;8.00;7.50;4.00
73825;PMS5003;64145;55.060;73.168;2023-03-19T15:28:14;8.50;8.00;4.00
73825;PMS5003;64145;55.060;73.168;2023-03-19T15:30:53;8.00;6.25;4.00
73825;PMS5003;64145;55.060;73.168;2023-03-19T15:33:21;6.00;6.00;3.00
73825;PMS5003;64145;55.060;73.168;2023-03-19T15:35:51;8.00;7.00;4.00
73825;PMS5003;64145;55.060;73.168;2023-03-19T15:38:25;6.25;5.75;2.25
73825;PMS5003;64145;55.060;73.168;2023-03-19T15:40:53;6.00;6.00;2.00
73825;PMS5003;64145;55.060;73.168;2023-03-19T15:43:19;6.00;6.00;2.00
73825;PMS5003;64145;55.060;73.168;2023-03-19T15:45:48;4.00;4.00;2.00
73825;PMS5003;64145;55.060;73.168;2023-03-19T15:48:35;4.00;2.00;1.00
73825;PMS5003;64145;55.060;73.168;2023-03-19T15:51:02;3.25;3.25;1.00
73825;PMS5003;64145;55.060;73.168;2023-03-19T15:53:30;4.00;4.00;1.00
73825;PMS5003;64145;55.060;73.168;2023-03-19T15:56:02;5.50;4.75;2.00
73825;PMS5003;64145;55.060;73.168;2023-03-19T15:58:34;8.00;8.00;2.75
73825;PMS5003;64145;55.060;73.168;2023-03-19T16:01:02;12.50;10.50;4.25
73825;PMS5003;64145;55.060;73.168;2023-03-19T16:03:32;13.00;11.00;5.00
73825;PMS5003;64145;55.060;73.168;2023-03-19T16:06:02;14.00;12.50;6.00
73825;PMS5003;64145;55.060;73.168;2023-03-19T16:08:29;18.50;14.75;7.50
73825;PMS5003;64145;55.060;73.168;2023-03-19T16:11:11;20.00;16.50;10.00
73825;PMS5003;64145;55.060;73.168;2023-03-19T16:13:38;25.00;20.75;13.00
73825;PMS5003;64145;55.060;73.168;2023-03-19T16:16:16;28.25;22.00;13.00
73825;PMS5003;64145;55.060;73.168;2023-03-19T16:18:53;31.25;23.00;15.00
73825;PMS5003;64145;55.060;73.168;2023-03-19T16:21:27;31.75;23.75;15.00